Time;durP1;ratioP1;P1;durP2;ratioP2;P2;SDS_P1;SDS_P2;PMS_P1;PMS_P2;Temp;Humidity;BMP_temperature;BMP_pressure;BME280_temperature;BME280_humidity;BME280_pressure;Samples;Min_cycle;Max_cycle;Signal;HPM_P1;HPM_P2
2022/08/31 00:04:33;;;;;;;2.90;2.17;;;16.30;99.90;;;;;;5067767;28;20039;-77
2022/08/31 00:06:59;;;;;;;3.00;2.10;;;16.40;99.90;;;;;;5062830;28;20073;-76
2022/08/31 00:09:25;;;;;;;2.20;2.00;;;16.40;99.90;;;;;;5057202;28;20033;-76
2022/08/31 00:11:50;;;;;;;1.90;1.80;;;16.30;99.90;;;;;;5055709;28;20024;-76
2022/08/31 00:14:16;;;;;;;2.00;1.80;;;16.30;99.90;;;;;;5054977;28;20033;-75
2022/08/31 00:16:44;;;;;;;6.25;1.95;;;16.30;99.90;;;;;;5055711;28;20048;-76
2022/08/31 00:19:10;;;;;;;7.97;1.58;;;16.20;99.90;;;;;;5055550;28;20045;-78
2022/08/31 00:21:38;;;;;;;6.93;1.88;;;16.20;99.90;;;;;;5054907;28;20029;-77
2022/08/31 00:24:04;;;;;;;2.20;1.90;;;16.20;99.90;;;;;;5055514;28;20032;-74
2022/08/31 00:26:29;;;;;;;1.98;1.80;;;16.10;99.90;;;;;;5055427;28;20053;-78
2022/08/31 00:28:55;;;;;;;4.38;2.08;;;16.10;99.90;;;;;;5054897;28;20511;-77
2022/08/31 00:31:21;;;;;;;2.90;2.00;;;16.10;99.90;;;;;;5055654;28;20028;-75
2022/08/31 00:33:51;;;;;;;2.65;2.45;;;16.10;99.90;;;;;;5055477;28;20408;-76
2022/08/31 00:36:17;;;;;;;2.13;1.92;;;16.00;99.90;;;;;;5053925;28;20029;-76
2022/08/31 00:38:43;;;;;;;2.97;1.80;;;16.00;99.90;;;;;;5055244;28;20029;-75
2022/08/31 00:41:10;;;;;;;2.90;1.70;;;16.00;99.90;;;;;;5055420;28;20040;-76
2022/08/31 00:43:51;;;;;;;4.18;1.80;;;16.00;99.90;;;;;;5054541;28;20031;-77
2022/08/31 00:46:24;;;;;;;2.20;2.00;;;16.00;99.90;;;;;;5055663;28;20029;-76
2022/08/31 00:49:06;;;;;;;2.15;1.95;;;16.00;99.90;;;;;;5055322;28;20028;-77
2022/08/31 00:51:55;;;;;;;5.07;1.90;;;15.90;99.90;;;;;;5054375;28;20504;-76
2022/08/31 00:54:27;;;;;;;3.35;1.77;;;15.90;99.90;;;;;;5054359;28;20033;-77
2022/08/31 00:56:53;;;;;;;3.22;2.10;;;15.90;99.90;;;;;;5054393;28;20033;-77
2022/08/31 00:59:20;;;;;;;2.40;2.20;;;15.90;99.90;;;;;;5054747;28;20601;-76
2022/08/31 01:01:46;;;;;;;2.28;1.83;;;15.80;99.90;;;;;;5054959;28;20032;-77
2022/08/31 01:04:11;;;;;;;4.30;2.15;;;15.80;99.90;;;;;;5053971;28;20025;-76
2022/08/31 01:06:38;;;;;;;2.90;1.83;;;15.80;99.90;;;;;;5054664;28;20100;-76
2022/08/31 01:09:06;;;;;;;2.05;1.85;;;15.70;99.90;;;;;;5054715;28;20021;-76
2022/08/31 01:11:32;;;;;;;5.38;1.80;;;15.80;99.90;;;;;;5054112;28;20025;-75
2022/08/31 01:13:58;;;;;;;4.72;1.80;;;15.70;99.90;;;;;;5054606;28;20025;-75
2022/08/31 01:16:36;;;;;;;2.03;1.83;;;15.80;99.90;;;;;;5054245;28;20111;-77
2022/08/31 01:19:06;;;;;;;2.50;1.92;;;15.70;99.90;;;;;;5053457;28;20045;-75
2022/08/31 01:21:41;;;;;;;2.42;2.10;;;15.70;99.90;;;;;;5054656;28;20150;-77
2022/08/31 01:24:08;;;;;;;2.20;2.00;;;15.60;99.90;;;;;;5054474;28;20163;-77
2022/08/31 01:26:36;;;;;;;4.05;1.98;;;15.50;99.90;;;;;;5053668;28;20104;-75
2022/08/31 01:29:04;;;;;;;2.20;2.00;;;15.50;99.90;;;;;;5053852;28;20481;-76
2022/08/31 01:31:40;;;;;;;2.20;2.00;;;15.50;99.90;;;;;;5053803;28;20028;-77
2022/08/31 01:34:06;;;;;;;3.50;2.20;;;15.50;99.90;;;;;;5054189;28;20044;-78
2022/08/31 01:36:34;;;;;;;4.38;1.90;;;15.50;99.90;;;;;;5054918;28;20025;-76
2022/08/31 01:39:00;;;;;;;3.25;2.03;;;15.50;99.90;;;;;;5052872;28;20032;-75
2022/08/31 01:41:26;;;;;;;2.40;1.80;;;15.50;99.90;;;;;;5053925;28;20082;-76
2022/08/31 01:43:51;;;;;;;2.53;2.10;;;15.40;99.90;;;;;;5053782;28;20036;-76
2022/08/31 01:46:17;;;;;;;3.15;2.35;;;15.40;99.90;;;;;;5054267;28;20024;-77
2022/08/31 01:48:44;;;;;;;6.03;1.80;;;15.40;99.90;;;;;;5053869;28;20052;-76
2022/08/31 01:51:15;;;;;;;2.72;2.20;;;15.40;99.90;;;;;;5053766;28;20531;-76
2022/08/31 01:53:42;;;;;;;4.20;1.90;;;15.30;99.90;;;;;;5052953;28;20036;-76
2022/08/31 01:56:18;;;;;;;2.13;2.00;;;15.30;99.90;;;;;;5053615;28;20021;-76
2022/08/31 01:58:43;;;;;;;1.83;1.73;;;15.30;99.90;;;;;;5053297;28;20070;-76
2022/08/31 02:01:09;;;;;;;2.38;2.20;;;15.30;99.90;;;;;;5052972;28;20025;-76
2022/08/31 02:03:35;;;;;;;2.47;2.20;;;15.30;99.90;;;;;;5053537;28;20025;-76
2022/08/31 02:06:19;;;;;;;2.65;1.88;;;15.30;99.90;;;;;;5053392;28;20430;-78
2022/08/31 02:08:44;;;;;;;2.03;1.83;;;15.20;99.90;;;;;;5052691;28;20025;-74
2022/08/31 02:11:10;;;;;;;1.83;1.70;;;15.30;99.90;;;;;;5053355;28;20376;-77
2022/08/31 02:13:36;;;;;;;2.25;1.90;;;15.30;99.90;;;;;;5053399;28;20025;-75
2022/08/31 02:16:03;;;;;;;2.85;1.90;;;15.30;99.90;;;;;;5052799;28;20021;-76
2022/08/31 02:18:28;;;;;;;2.17;1.73;;;15.20;99.90;;;;;;5052951;28;20041;-75
2022/08/31 02:20:54;;;;;;;5.07;2.42;;;15.20;99.90;;;;;;5051134;28;20390;-76
2022/08/31 02:23:20;;;;;;;5.40;2.10;;;15.10;99.90;;;;;;5053293;28;20017;-77
2022/08/31 02:25:46;;;;;;;2.78;2.17;;;15.20;99.90;;;;;;5053361;28;20393;-76
2022/08/31 02:28:12;;;;;;;3.35;1.92;;;15.10;99.90;;;;;;5052592;28;20021;-76
2022/08/31 02:30:40;;;;;;;3.63;1.80;;;15.00;99.90;;;;;;5053226;28;20059;-76
2022/08/31 02:33:06;;;;;;;2.55;1.80;;;15.00;99.90;;;;;;5053254;28;20040;-75
2022/08/31 02:35:32;;;;;;;1.67;1.45;;;14.90;99.90;;;;;;5052420;28;20025;-77
2022/08/31 02:37:58;;;;;;;1.70;1.60;;;14.90;99.90;;;;;;5053151;28;20036;-77
2022/08/31 02:40:24;;;;;;;3.33;1.85;;;14.90;99.90;;;;;;5053903;28;20033;-77
2022/08/31 02:42:49;;;;;;;1.85;1.67;;;14.90;99.90;;;;;;5056950;28;20021;-77
2022/08/31 02:45:15;;;;;;;2.78;1.92;;;14.90;99.90;;;;;;5057056;28;20519;-76
2022/08/31 02:47:40;;;;;;;2.45;1.80;;;14.80;99.90;;;;;;5057180;28;20543;-77
2022/08/31 02:50:06;;;;;;;4.93;2.20;;;14.80;99.90;;;;;;5056225;28;20028;-77
2022/08/31 02:52:32;;;;;;;3.53;1.75;;;14.80;99.90;;;;;;5057134;28;20373;-77
2022/08/31 02:54:57;;;;;;;4.47;1.67;;;14.80;99.90;;;;;;5056808;28;20025;-76
2022/08/31 02:57:23;;;;;;;1.83;1.73;;;14.80;99.90;;;;;;5056293;28;20021;-76
2022/08/31 02:59:48;;;;;;;2.47;1.85;;;14.70;99.90;;;;;;5056727;28;20037;-76
2022/08/31 03:02:14;;;;;;;3.38;1.85;;;14.80;99.90;;;;;;5057276;28;20024;-77
2022/08/31 03:04:41;;;;;;;2.03;1.75;;;14.70;99.90;;;;;;5055902;28;20365;-78
2022/08/31 03:07:06;;;;;;;3.55;1.90;;;14.70;99.90;;;;;;5056728;28;20033;-75
2022/08/31 03:09:32;;;;;;;3.63;1.95;;;14.70;99.90;;;;;;5056755;28;20024;-77
2022/08/31 03:11:58;;;;;;;4.82;1.80;;;14.60;99.90;;;;;;5055761;28;20033;-76
2022/08/31 03:14:25;;;;;;;2.40;2.17;;;14.60;99.90;;;;;;5056708;28;20029;-77
2022/08/31 03:16:51;;;;;;;2.05;1.60;;;14.60;99.90;;;;;;5056827;28;20021;-73
2022/08/31 03:19:16;;;;;;;3.30;1.48;;;14.60;99.90;;;;;;5055465;28;20063;-76
2022/08/31 03:21:44;;;;;;;2.42;2.08;;;14.50;99.90;;;;;;5056621;28;20021;-77
2022/08/31 03:24:10;;;;;;;4.50;2.13;;;14.50;99.90;;;;;;5055450;28;20039;-76
2022/08/31 03:26:35;;;;;;;1.80;1.70;;;14.50;99.90;;;;;;5056675;28;20028;-76
2022/08/31 03:29:01;;;;;;;3.95;1.95;;;14.50;99.90;;;;;;5056299;28;20491;-76
2022/08/31 03:31:27;;;;;;;1.90;1.80;;;14.40;99.90;;;;;;5055502;28;20067;-76
2022/08/31 03:33:52;;;;;;;1.80;1.70;;;14.40;99.90;;;;;;5057234;28;20177;-76
2022/08/31 03:36:18;;;;;;;1.98;1.60;;;14.40;99.90;;;;;;5056525;28;20028;-76
2022/08/31 03:38:43;;;;;;;3.83;1.60;;;14.40;99.90;;;;;;5055888;28;20110;-76
2022/08/31 03:41:10;;;;;;;2.45;1.85;;;14.50;99.90;;;;;;5056787;28;20031;-76
2022/08/31 03:43:36;;;;;;;2.10;1.90;;;14.40;99.90;;;;;;5055410;28;20481;-78
2022/08/31 03:46:03;;;;;;;3.60;1.95;;;14.40;99.90;;;;;;5055701;28;20107;-76
2022/08/31 03:48:29;;;;;;;4.07;1.90;;;14.40;99.90;;;;;;5056282;28;20032;-76
2022/08/31 03:50:55;;;;;;;2.95;1.88;;;14.40;99.90;;;;;;5055868;28;20017;-75
2022/08/31 03:53:20;;;;;;;8.23;1.95;;;14.40;99.90;;;;;;5055810;28;20048;-76
2022/08/31 03:55:46;;;;;;;12.93;2.05;;;14.30;99.90;;;;;;5055820;28;20029;-75
2022/08/31 03:58:12;;;;;;;3.50;1.48;;;14.40;99.90;;;;;;5056281;28;20024;-75
2022/08/31 04:00:38;;;;;;;2.60;1.70;;;14.40;99.90;;;;;;5055381;28;20492;-75
2022/08/31 04:03:04;;;;;;;2.53;2.15;;;14.30;99.90;;;;;;5056960;28;20028;-76
2022/08/31 04:05:33;;;;;;;4.75;1.95;;;14.30;99.90;;;;;;5061139;28;20112;-75
2022/08/31 04:07:59;;;;;;;1.92;1.77;;;14.30;99.90;;;;;;5062539;28;20017;-75
2022/08/31 04:10:24;;;;;;;4.20;1.73;;;14.30;99.90;;;;;;5063446;28;20029;-74
2022/08/31 04:12:50;;;;;;;2.85;1.83;;;14.30;99.90;;;;;;5065087;28;20155;-76
2022/08/31 04:15:17;;;;;;;3.22;2.05;;;14.30;99.90;;;;;;5065043;28;20048;-75
2022/08/31 04:17:44;;;;;;;2.33;1.77;;;14.30;99.90;;;;;;5062722;28;20048;-76
2022/08/31 04:20:10;;;;;;;1.80;1.55;;;14.30;99.90;;;;;;5058827;28;20071;-75
2022/08/31 04:22:35;;;;;;;3.35;2.10;;;14.30;99.90;;;;;;5054775;28;20029;-76
2022/08/31 04:25:01;;;;;;;2.20;1.65;;;14.30;99.90;;;;;;5055345;28;20536;-75
2022/08/31 04:27:28;;;;;;;2.60;1.85;;;14.20;99.90;;;;;;5055030;28;20113;-74
2022/08/31 04:29:54;;;;;;;6.50;1.90;;;14.20;99.90;;;;;;5056053;28;20025;-75
2022/08/31 04:32:19;;;;;;;1.70;1.60;;;14.30;99.90;;;;;;5055753;28;20539;-75
2022/08/31 04:34:45;;;;;;;2.10;1.90;;;14.20;99.90;;;;;;5054766;28;20033;-75
2022/08/31 04:37:13;;;;;;;2.05;1.42;;;14.20;99.90;;;;;;5054926;28;20021;-75
2022/08/31 04:39:40;;;;;;;3.17;2.78;;;14.20;99.90;;;;;;5054849;28;20388;-75
2022/08/31 04:42:05;;;;;;;2.15;1.70;;;14.20;99.90;;;;;;5053979;28;20100;-75
2022/08/31 04:44:31;;;;;;;2.22;1.95;;;14.20;99.90;;;;;;5054996;28;20029;-75
2022/08/31 04:46:57;;;;;;;1.60;1.50;;;14.10;99.90;;;;;;5054834;28;20044;-75
2022/08/31 04:49:22;;;;;;;3.38;1.60;;;14.10;99.90;;;;;;5054297;28;20516;-75
2022/08/31 04:51:48;;;;;;;2.10;1.90;;;14.10;99.90;;;;;;5054839;28;20082;-77
2022/08/31 04:54:14;;;;;;;1.50;1.40;;;14.10;99.90;;;;;;5054947;28;20025;-76
2022/08/31 04:56:42;;;;;;;1.77;1.50;;;14.10;99.90;;;;;;5054185;28;20045;-75
2022/08/31 04:59:11;;;;;;;5.82;1.92;;;14.20;99.90;;;;;;5054729;28;20032;-75
2022/08/31 05:01:40;;;;;;;1.77;1.40;;;14.10;99.90;;;;;;5054666;28;20056;-78
2022/08/31 05:04:07;;;;;;;1.73;1.60;;;14.20;99.90;;;;;;5052872;28;20061;-75
2022/08/31 05:06:35;;;;;;;2.53;1.33;;;14.10;99.90;;;;;;5054659;28;20022;-74
2022/08/31 05:09:08;;;;;;;1.50;1.40;;;14.10;99.90;;;;;;5054519;28;20040;-77
2022/08/31 05:11:34;;;;;;;1.55;1.45;;;14.10;99.90;;;;;;5053701;28;20021;-75
2022/08/31 05:14:02;;;;;;;1.67;1.30;;;14.10;99.90;;;;;;5055152;28;20079;-75
2022/08/31 05:16:32;;;;;;;3.30;1.58;;;14.30;99.90;;;;;;5054389;28;20469;-73
2022/08/31 05:18:58;;;;;;;1.50;1.40;;;14.30;99.90;;;;;;5053356;28;20049;-75
2022/08/31 05:21:30;;;;;;;2.33;1.48;;;14.20;99.90;;;;;;5054091;28;20568;-75
2022/08/31 05:23:59;;;;;;;3.28;1.50;;;14.30;99.90;;;;;;5054215;28;20385;-74
2022/08/31 05:26:28;;;;;;;1.45;1.33;;;14.30;99.90;;;;;;5054148;28;20025;-75
2022/08/31 05:28:55;;;;;;;2.17;1.70;;;14.30;99.90;;;;;;5053808;28;20389;-76
2022/08/31 05:31:22;;;;;;;1.60;1.50;;;14.30;99.90;;;;;;5053273;28;20025;-75
2022/08/31 05:33:48;;;;;;;1.80;1.35;;;14.30;99.90;;;;;;5053976;28;20021;-75
2022/08/31 05:36:14;;;;;;;1.80;1.10;;;14.40;99.90;;;;;;5054014;28;20032;-74
2022/08/31 05:38:41;;;;;;;2.80;1.50;;;14.30;99.90;;;;;;5052829;28;20389;-75
2022/08/31 05:41:07;;;;;;;2.47;1.42;;;14.30;99.90;;;;;;5053697;28;20583;-75
2022/08/31 05:43:34;;;;;;;5.22;1.20;;;14.40;99.90;;;;;;5053772;28;20029;-75
2022/08/31 05:45:59;;;;;;;1.90;1.33;;;14.40;99.90;;;;;;5053251;28;20102;-75
2022/08/31 05:48:26;;;;;;;4.78;1.77;;;14.40;99.90;;;;;;5053752;28;20069;-75
2022/08/31 05:50:53;;;;;;;2.20;1.13;;;14.50;99.90;;;;;;5053693;28;20036;-74
2022/08/31 05:53:19;;;;;;;2.50;1.15;;;14.50;99.90;;;;;;5052830;28;20489;-75
2022/08/31 05:55:44;;;;;;;3.90;0.98;;;14.50;99.90;;;;;;5053711;28;20025;-75
2022/08/31 05:58:11;;;;;;;4.00;1.23;;;14.60;99.90;;;;;;5053417;28;20029;-75
2022/08/31 06:00:38;;;;;;;6.13;1.17;;;14.50;99.90;;;;;;5052887;28;20037;-74
2022/08/31 06:03:04;;;;;;;2.28;1.08;;;14.60;99.90;;;;;;5053631;28;20021;-75
2022/08/31 06:05:30;;;;;;;1.00;0.90;;;14.70;99.90;;;;;;5053401;28;20075;-75
2022/08/31 06:07:56;;;;;;;3.28;1.30;;;14.70;99.90;;;;;;5052564;28;20064;-74
2022/08/31 06:10:22;;;;;;;1.10;1.00;;;14.70;99.90;;;;;;5053542;28;20078;-73
2022/08/31 06:12:47;;;;;;;3.00;1.08;;;14.80;99.90;;;;;;5053605;28;20131;-75
2022/08/31 06:15:14;;;;;;;1.35;1.10;;;14.80;99.90;;;;;;5053165;28;20493;-75
2022/08/31 06:17:40;;;;;;;1.48;0.90;;;14.80;99.90;;;;;;5053610;28;20101;-76
2022/08/31 06:20:07;;;;;;;1.58;1.00;;;14.90;99.90;;;;;;5052324;28;20060;-77
2022/08/31 06:22:34;;;;;;;4.32;1.20;;;14.90;99.90;;;;;;5053207;28;20051;-77
2022/08/31 06:25:00;;;;;;;4.10;0.93;;;15.00;99.90;;;;;;5053891;28;20090;-75
2022/08/31 06:27:28;;;;;;;0.85;0.80;;;15.00;99.90;;;;;;5052891;28;20025;-75
2022/08/31 06:29:54;;;;;;;1.25;0.75;;;15.10;99.90;;;;;;5052576;28;20048;-74
2022/08/31 06:32:20;;;;;;;3.60;0.95;;;15.20;99.90;;;;;;5053279;28;20446;-75
2022/08/31 06:34:46;;;;;;;0.77;0.70;;;15.20;99.90;;;;;;5052585;28;20104;-74
2022/08/31 06:37:12;;;;;;;1.25;0.80;;;15.30;99.90;;;;;;5052998;28;20053;-75
2022/08/31 06:39:38;;;;;;;2.10;1.02;;;15.30;99.90;;;;;;5052626;28;20029;-76
2022/08/31 06:42:05;;;;;;;0.70;0.70;;;15.30;99.90;;;;;;5052387;28;20025;-76
2022/08/31 06:44:31;;;;;;;4.03;0.93;;;15.40;99.90;;;;;;5053510;28;20128;-76
2022/08/31 06:46:56;;;;;;;1.58;0.90;;;15.30;99.90;;;;;;5053710;28;20084;-73
2022/08/31 06:49:22;;;;;;;0.85;0.75;;;15.40;99.90;;;;;;5052837;28;20036;-74
2022/08/31 06:51:49;;;;;;;1.05;0.90;;;15.50;99.90;;;;;;5053202;28;20017;-75
2022/08/31 06:54:16;;;;;;;3.85;1.30;;;15.60;99.90;;;;;;5053384;28;20037;-75
2022/08/31 06:56:42;;;;;;;2.22;0.88;;;15.60;99.90;;;;;;5052456;28;20021;-75
2022/08/31 06:59:08;;;;;;;1.55;1.00;;;15.60;99.90;;;;;;5052826;28;20377;-75
2022/08/31 07:01:35;;;;;;;0.73;0.73;;;15.70;99.90;;;;;;5053229;28;20037;-75
2022/08/31 07:04:04;;;;;;;2.35;1.00;;;15.70;99.90;;;;;;5053028;28;20021;-74
2022/08/31 07:06:43;;;;;;;0.77;0.60;;;15.80;99.90;;;;;;5053090;28;20024;-75
2022/08/31 07:09:11;;;;;;;0.70;0.70;;;15.80;99.90;;;;;;5052768;28;20031;-75
2022/08/31 07:11:40;;;;;;;2.08;0.70;;;15.90;99.90;;;;;;5053567;28;20033;-76
2022/08/31 07:14:07;;;;;;;1.08;0.85;;;15.90;99.90;;;;;;5053142;28;20056;-74
2022/08/31 07:16:33;;;;;;;2.28;0.90;;;16.00;99.90;;;;;;5052170;28;20029;-74
2022/08/31 07:19:02;;;;;;;1.65;1.00;;;16.10;99.90;;;;;;5052725;28;20106;-75
2022/08/31 07:21:33;;;;;;;0.82;0.82;;;16.10;99.90;;;;;;5053189;28;20021;-75
2022/08/31 07:24:00;;;;;;;1.75;1.17;;;16.20;99.90;;;;;;5051822;28;20029;-76
2022/08/31 07:26:30;;;;;;;5.57;0.98;;;16.30;99.90;;;;;;5053879;28;20052;-76
2022/08/31 07:28:57;;;;;;;2.00;1.00;;;16.30;99.90;;;;;;5056750;28;20388;-76
2022/08/31 07:31:29;;;;;;;1.35;1.05;;;16.30;99.90;;;;;;5055900;28;20290;-75
2022/08/31 07:33:55;;;;;;;1.73;1.00;;;16.40;99.90;;;;;;5056340;28;20024;-75
2022/08/31 07:36:23;;;;;;;3.63;1.20;;;16.50;99.90;;;;;;5056251;28;20029;-76
2022/08/31 07:44:19;;;;;;;1.10;1.00;;;16.70;99.90;;;;;;5056114;28;20032;-77
2022/08/31 07:46:46;;;;;;;1.25;1.08;;;16.80;99.90;;;;;;5056409;28;20028;-76
2022/08/31 07:49:14;;;;;;;2.95;1.30;;;16.80;99.90;;;;;;5056215;28;20099;-76
2022/08/31 07:51:49;;;;;;;1.23;1.10;;;16.90;99.90;;;;;;5055851;28;20025;-76
2022/08/31 07:54:21;;;;;;;1.02;0.90;;;17.00;99.90;;;;;;5056190;28;20392;-75
2022/08/31 07:56:51;;;;;;;1.00;0.93;;;17.10;99.90;;;;;;5055854;28;20439;-76
2022/08/31 07:59:19;;;;;;;2.97;0.82;;;17.20;99.90;;;;;;5055364;28;20112;-76
2022/08/31 08:01:45;;;;;;;1.02;0.93;;;17.20;99.90;;;;;;5056386;28;20032;-75
2022/08/31 08:04:17;;;;;;;1.33;1.10;;;17.30;99.90;;;;;;5056190;28;20021;-76
2022/08/31 08:06:43;;;;;;;1.00;1.00;;;17.30;99.90;;;;;;5054954;28;20033;-76
2022/08/31 08:09:10;;;;;;;4.40;1.08;;;17.50;99.90;;;;;;5056124;28;20028;-76
2022/08/31 08:11:40;;;;;;;2.80;1.05;;;17.50;99.90;;;;;;5055944;28;20041;-76
2022/08/31 08:14:06;;;;;;;;;;;17.60;99.90;;;;;;5055585;28;20075;-75
2022/08/31 08:16:32;;;;;;;1.08;0.82;;;17.60;99.90;;;;;;5056238;28;19960;-76
2022/08/31 08:18:59;;;;;;;5.35;1.20;;;17.70;99.90;;;;;;5056067;28;20081;-77
2022/08/31 08:21:25;;;;;;;4.10;1.50;;;17.80;99.90;;;;;;5055269;28;20037;-76
2022/08/31 08:23:51;;;;;;;1.98;1.40;;;17.90;99.90;;;;;;5055518;28;20028;-76
2022/08/31 08:26:17;;;;;;;6.25;1.40;;;18.00;99.90;;;;;;5055616;28;20025;-76
2022/08/31 08:28:42;;;;;;;1.33;1.20;;;18.00;99.90;;;;;;5055014;28;20025;-76
2022/08/31 08:31:27;;;;;;;1.27;1.17;;;18.10;99.90;;;;;;5057491;28;20025;-75
2022/08/31 08:33:53;;;;;;;1.50;1.40;;;18.20;99.90;;;;;;5056638;28;20124;-77
2022/08/31 08:36:19;;;;;;;2.50;1.13;;;18.20;99.90;;;;;;5056843;28;20045;-75
2022/08/31 08:38:49;;;;;;;1.50;1.38;;;18.30;99.90;;;;;;5058281;28;20461;-76
2022/08/31 08:41:21;;;;;;;1.38;1.27;;;18.40;99.90;;;;;;5061126;28;20051;-76
2022/08/31 08:43:52;;;;;;;3.00;1.58;;;18.40;99.90;;;;;;5061438;28;20029;-75
2022/08/31 08:46:26;;;;;;;2.38;1.10;;;18.50;99.90;;;;;;5056552;28;20362;-76
2022/08/31 08:48:54;;;;;;;1.88;1.10;;;18.60;99.90;;;;;;5054296;28;20017;-76
2022/08/31 08:51:28;;;;;;;2.70;1.60;;;18.70;99.90;;;;;;5056753;28;20427;-76
2022/08/31 08:54:03;;;;;;;13.50;1.63;;;18.80;99.90;;;;;;5056018;28;20031;-75
2022/08/31 08:56:29;;;;;;;2.85;1.35;;;18.80;99.90;;;;;;5054904;28;20025;-75
2022/08/31 08:58:55;;;;;;;2.13;1.50;;;18.90;99.90;;;;;;5054855;28;20128;-76
2022/08/31 09:01:28;;;;;;;5.43;1.58;;;19.00;99.90;;;;;;5056202;28;20032;-77
2022/08/31 09:04:15;;;;;;;5.82;1.77;;;19.00;99.90;;;;;;5054659;28;20098;-76
2022/08/31 09:07:00;;;;;;;2.10;1.63;;;19.20;99.90;;;;;;5054837;28;20028;-75
2022/08/31 09:09:47;;;;;;;5.55;1.50;;;19.20;99.90;;;;;;5053800;28;20116;-78
2022/08/31 09:12:41;;;;;;;1.52;1.40;;;19.30;99.90;;;;;;5055178;28;20112;-76
2022/08/31 09:15:35;;;;;;;1.70;1.48;;;19.30;99.90;;;;;;5054887;28;20021;-76
2022/08/31 09:18:32;;;;;;;1.42;1.20;;;19.40;99.90;;;;;;5054112;28;20404;-76
2022/08/31 09:21:24;;;;;;;2.22;1.50;;;19.40;99.90;;;;;;5055088;28;20025;-75
2022/08/31 09:24:15;;;;;;;2.85;1.45;;;19.40;99.90;;;;;;5054116;28;20472;-76
2022/08/31 09:27:19;;;;;;;1.45;0.95;;;19.60;99.90;;;;;;5054875;28;20029;-75
2022/08/31 09:29:57;;;;;;;4.78;1.48;;;19.70;99.90;;;;;;5054240;28;20128;-76
2022/08/31 09:32:30;;;;;;;1.50;1.40;;;19.80;99.90;;;;;;5054625;28;20048;-76
2022/08/31 09:35:08;;;;;;;2.17;1.60;;;19.90;99.90;;;;;;5054297;28;20021;-76
2022/08/31 09:37:45;;;;;;;2.75;1.40;;;19.90;99.90;;;;;;5054067;28;20032;-75
2022/08/31 09:40:19;;;;;;;1.58;1.48;;;19.90;99.90;;;;;;5054180;28;20040;-76
2022/08/31 09:42:59;;;;;;;1.52;1.33;;;20.00;99.90;;;;;;5054510;28;20524;-74
2022/08/31 09:45:34;;;;;;;4.38;1.80;;;19.90;99.90;;;;;;5053854;28;20029;-76
2022/08/31 09:48:02;;;;;;;7.78;2.03;;;20.00;99.90;;;;;;5054317;28;20056;-77
2022/08/31 09:50:43;;;;;;;1.88;1.40;;;20.10;99.90;;;;;;5053478;28;20077;-76
2022/08/31 09:56:18;;;;;;;5.97;1.70;;;20.20;99.90;;;;;;5054237;28;20388;-76
2022/08/31 09:58:47;;;;;;;1.60;1.38;;;20.30;99.90;;;;;;5052954;28;20020;-76
2022/08/31 10:01:41;;;;;;;1.63;1.50;;;20.30;99.80;;;;;;5054101;28;20028;-76
2022/08/31 10:04:15;;;;;;;3.95;2.03;;;20.40;99.40;;;;;;5051515;28;20079;-76
2022/08/31 10:06:45;;;;;;;2.33;1.80;;;20.50;99.60;;;;;;5052988;28;20021;-76
2022/08/31 10:09:27;;;;;;;4.10;1.63;;;20.50;99.20;;;;;;5054000;28;20028;-75
2022/08/31 10:11:56;;;;;;;2.95;1.60;;;20.60;99.30;;;;;;5054090;28;20483;-76
2022/08/31 10:14:39;;;;;;;2.95;1.30;;;20.60;99.50;;;;;;5053481;28;20025;-75
2022/08/31 10:17:25;;;;;;;1.60;1.30;;;20.70;99.30;;;;;;5053785;28;20023;-76
2022/08/31 10:20:05;;;;;;;2.83;1.58;;;20.80;99.00;;;;;;5052836;28;20044;-77
2022/08/31 10:22:39;;;;;;;;;;;20.80;98.50;;;;;;5054154;28;20031;-76
2022/08/31 10:25:11;;;;;;;1.55;1.45;;;20.80;98.50;;;;;;5053636;28;19951;-77
2022/08/31 10:28:02;;;;;;;4.15;1.58;;;20.90;98.70;;;;;;5052655;28;20114;-77
2022/08/31 10:30:32;;;;;;;1.67;1.45;;;21.00;98.60;;;;;;5054154;28;20029;-75
2022/08/31 10:32:58;;;;;;;4.28;1.38;;;21.10;98.40;;;;;;5054048;28;20476;-77
2022/08/31 10:35:48;;;;;;;4.68;1.60;;;21.10;98.30;;;;;;5053290;28;20040;-77
2022/08/31 10:38:30;;;;;;;1.92;1.60;;;21.20;98.00;;;;;;5053555;28;20116;-75
2022/08/31 10:41:09;;;;;;;1.67;1.52;;;21.20;98.10;;;;;;5053870;28;20048;-75
2022/08/31 10:44:04;;;;;;;1.77;1.63;;;21.30;98.10;;;;;;5053853;28;20093;-76
2022/08/31 10:46:31;;;;;;;4.60;1.45;;;21.20;97.80;;;;;;5053473;28;20487;-78
2022/08/31 10:48:58;;;;;;;2.05;1.58;;;21.30;98.20;;;;;;5054162;28;20025;-77
2022/08/31 10:51:50;;;;;;;2.85;1.45;;;21.30;97.70;;;;;;5054049;28;20029;-77
2022/08/31 10:54:59;;;;;;;4.90;1.17;;;21.50;97.50;;;;;;5053320;28;20056;-76
2022/08/31 10:57:28;;;;;;;7.10;1.38;;;21.60;97.60;;;;;;5054185;28;20043;-76
2022/08/31 11:00:03;;;;;;;2.92;1.30;;;21.60;97.30;;;;;;5053761;28;20492;-77
2022/08/31 11:02:32;;;;;;;1.33;0.82;;;21.70;96.80;;;;;;5055814;28;20036;-76
2022/08/31 11:05:06;;;;;;;1.75;0.90;;;21.80;97.00;;;;;;5057838;28;20136;-76
2022/08/31 11:08:10;;;;;;;3.53;1.17;;;21.80;96.70;;;;;;5058317;28;20021;-75
2022/08/31 11:10:42;;;;;;;2.38;1.20;;;21.90;96.40;;;;;;5057632;28;20021;-77
2022/08/31 11:13:25;;;;;;;4.63;1.45;;;21.90;96.10;;;;;;5057769;28;20127;-76
2022/08/31 11:16:01;;;;;;;2.88;0.90;;;21.90;95.90;;;;;;5058670;28;20054;-77
2022/08/31 11:19:06;;;;;;;5.47;1.55;;;21.90;95.80;;;;;;5059231;28;20064;-76
2022/08/31 11:22:19;;;;;;;2.08;1.15;;;22.00;95.90;;;;;;5040353;28;20461;-76
2022/08/31 11:25:13;;;;;;;3.08;1.17;;;22.10;95.90;;;;;;5046599;28;20092;-76
2022/08/31 11:28:06;;;;;;;3.53;1.00;;;22.20;95.70;;;;;;5066747;28;20074;-75
2022/08/31 11:30:36;;;;;;;2.95;1.40;;;22.20;95.50;;;;;;5065066;28;20116;-76
2022/08/31 11:33:10;;;;;;;3.70;1.60;;;22.10;95.20;;;;;;5067023;28;20063;-75
2022/08/31 11:35:59;;;;;;;3.35;1.27;;;22.10;95.30;;;;;;5066298;28;20084;-76
2022/08/31 11:38:51;;;;;;;1.63;1.38;;;22.10;95.70;;;;;;5069870;28;20029;-76
2022/08/31 11:41:49;;;;;;;1.02;0.93;;;22.20;95.80;;;;;;5066567;28;20043;-76
2022/08/31 11:44:38;;;;;;;2.03;1.38;;;22.20;94.90;;;;;;5053417;28;20104;-77
2022/08/31 11:47:28;;;;;;;5.00;1.90;;;22.30;94.90;;;;;;5066109;28;20017;-76
2022/08/31 11:50:04;;;;;;;1.83;1.00;;;22.40;95.00;;;;;;5066362;28;20025;-77
2022/08/31 11:52:47;;;;;;;1.30;0.90;;;22.50;95.00;;;;;;5065792;28;20429;-77
2022/08/31 11:55:51;;;;;;;3.38;0.80;;;22.70;94.80;;;;;;5066003;28;20032;-76
2022/08/31 11:58:24;;;;;;;9.23;1.30;;;22.80;94.80;;;;;;5057957;28;20077;-75
2022/08/31 12:01:02;;;;;;;7.93;1.67;;;22.90;94.40;;;;;;5057052;28;20453;-76
2022/08/31 12:03:42;;;;;;;12.05;1.35;;;23.00;94.20;;;;;;5056699;28;20018;-76
2022/08/31 12:06:32;;;;;;;3.08;1.10;;;22.90;94.30;;;;;;5057308;28;20116;-76
2022/08/31 12:09:01;;;;;;;2.28;1.00;;;23.00;94.10;;;;;;5056541;28;20029;-76
2022/08/31 12:11:47;;;;;;;2.03;1.25;;;23.00;93.80;;;;;;5057329;28;20365;-76
2022/08/31 12:14:40;;;;;;;2.03;0.90;;;23.00;93.90;;;;;;5056523;28;20025;-75
2022/08/31 12:17:37;;;;;;;4.18;1.08;;;23.10;93.80;;;;;;5056145;28;20029;-76
2022/08/31 12:20:44;;;;;;;;;;;;;;;;;;;;;
2022/08/31 12:23:53;;;;;;;4.18;0.90;;;23.10;92.60;;;;;;5034745;28;20033;-76
2022/08/31 12:26:55;;;;;;;3.63;1.10;;;23.20;93.10;;;;;;5028795;28;20093;-76
2022/08/31 12:29:27;;;;;;;7.53;0.90;;;23.40;93.30;;;;;;5057460;28;20029;-76
2022/08/31 12:32:08;;;;;;;0.98;0.82;;;23.50;92.50;;;;;;5056540;28;20032;-77
2022/08/31 12:34:38;;;;;;;0.98;0.93;;;23.50;92.10;;;;;;5056110;28;20115;-76
2022/08/31 12:37:28;;;;;;;4.65;1.42;;;23.60;92.40;;;;;;5057028;28;20025;-75
2022/08/31 12:40:14;;;;;;;1.60;1.20;;;23.60;92.20;;;;;;5055855;28;20033;-76
2022/08/31 12:42:54;;;;;;;2.45;0.70;;;23.60;92.30;;;;;;5056180;28;20033;-76
2022/08/31 12:45:43;;;;;;;1.55;1.00;;;23.70;91.90;;;;;;5056112;28;20104;-78
2022/08/31 12:48:39;;;;;;;3.17;1.35;;;23.70;92.20;;;;;;5055908;28;20041;-76
2022/08/31 12:51:23;;;;;;;3.05;1.40;;;23.70;91.90;;;;;;5055572;28;20032;-77
2022/08/31 12:54:21;;;;;;;2.22;1.02;;;23.80;92.10;;;;;;5055546;28;20104;-76
2022/08/31 12:57:15;;;;;;;1.85;0.95;;;23.70;91.90;;;;;;5044043;28;20029;-75
2022/08/31 12:59:52;;;;;;;1.50;0.90;;;23.80;91.90;;;;;;5055487;28;20044;-78
2022/08/31 13:02:19;;;;;;;3.28;1.08;;;24.00;92.00;;;;;;5055313;28;20384;-75
2022/08/31 13:04:46;;;;;;;1.27;0.90;;;24.10;92.00;;;;;;5055632;28;20112;-77
2022/08/31 13:07:40;;;;;;;1.10;1.00;;;24.10;91.70;;;;;;5057092;28;20029;-76
2022/08/31 13:10:24;;;;;;;3.13;1.10;;;24.30;91.60;;;;;;5052684;28;20037;-76
2022/08/31 13:12:58;;;;;;;1.02;0.80;;;24.40;90.70;;;;;;5060651;28;20029;-77
2022/08/31 13:15:28;;;;;;;2.05;1.10;;;24.30;91.00;;;;;;5059587;28;20102;-76
2022/08/31 13:17:54;;;;;;;1.50;0.90;;;24.20;91.10;;;;;;5059140;28;20040;-77
2022/08/31 13:20:24;;;;;;;2.95;0.98;;;24.30;90.80;;;;;;5055802;28;20049;-77
2022/08/31 13:23:01;;;;;;;1.48;1.10;;;24.40;91.20;;;;;;5054271;28;20078;-77
2022/08/31 13:25:34;;;;;;;4.68;1.30;;;24.50;91.60;;;;;;5054227;28;20067;-77